createdAt,value
2023-02-02T00:01:31.246Z,8.10
2023-02-02T00:03:58.731Z,8.10
2023-02-02T00:06:29.430Z,8.10
2023-02-02T00:08:59.522Z,8.10
2023-02-02T00:11:27.603Z,8.10
2023-02-02T00:14:03.305Z,8.20
2023-02-02T00:16:30.110Z,8.20
2023-02-02T00:19:13.503Z,8.20
2023-02-02T00:21:40.844Z,8.30
2023-02-02T00:24:10.441Z,8.40
2023-02-02T00:26:39.977Z,8.40
2023-02-02T00:29:10.404Z,8.40
2023-02-02T00:31:37.708Z,8.40
2023-02-02T00:34:04.955Z,8.50
2023-02-02T00:36:31.972Z,8.50
2023-02-02T00:38:59.028Z,8.50
2023-02-02T00:41:26.074Z,8.60
2023-02-02T00:44:11.728Z,8.60
2023-02-02T00:46:42.736Z,8.60
2023-02-02T00:49:10.096Z,8.70
2023-02-02T00:51:37.374Z,8.70
2023-02-02T00:54:05.076Z,8.70
2023-02-02T00:56:32.169Z,8.90
2023-02-02T00:58:59.447Z,8.70
2023-02-02T01:01:26.439Z,8.70
2023-02-02T01:03:53.799Z,8.70
2023-02-02T01:06:21.345Z,8.70
2023-02-02T01:08:48.439Z,8.70
2023-02-02T01:11:17.449Z,8.70
2023-02-02T01:13:44.741Z,8.70
2023-02-02T01:16:12.257Z,8.70
2023-02-02T01:18:40.212Z,8.70
2023-02-02T01:21:10.977Z,8.70
2023-02-02T01:23:39.500Z,8.70
2023-02-02T01:26:09.957Z,8.70
2023-02-02T01:28:37.562Z,8.70
2023-02-02T01:31:15.166Z,8.70
2023-02-02T01:33:44.267Z,8.60
2023-02-02T01:36:20.305Z,8.60
2023-02-02T01:38:48.558Z,8.60
2023-02-02T01:41:23.733Z,8.60
2023-02-02T01:43:55.901Z,8.60
2023-02-02T01:46:35.859Z,8.60
2023-02-02T01:49:13.674Z,8.60
2023-02-02T01:51:54.929Z,8.50
2023-02-02T01:54:35.201Z,8.50
2023-02-02T01:57:38.399Z,8.50
2023-02-02T02:00:11.354Z,8.50
2023-02-02T02:02:46.017Z,8.40
2023-02-02T02:05:19.967Z,8.50
2023-02-02T02:07:49.762Z,8.40
2023-02-02T02:10:18.725Z,8.40
2023-02-02T02:12:48.206Z,8.40
2023-02-02T02:15:34.229Z,8.40
2023-02-02T02:19:01.556Z,8.40
2023-02-02T02:22:15.354Z,8.40
2023-02-02T02:25:22.949Z,8.40
2023-02-02T02:28:52.031Z,8.40
2023-02-02T02:32:01.330Z,8.50
2023-02-02T02:35:16.857Z,8.50
2023-02-02T02:38:09.665Z,8.50
2023-02-02T02:40:46.125Z,8.50
2023-02-02T02:43:20.474Z,8.50
2023-02-02T02:45:48.982Z,8.50
2023-02-02T02:48:16.741Z,8.60
2023-02-02T02:50:44.351Z,8.60
2023-02-02T02:53:22.416Z,8.60
2023-02-02T02:56:19.779Z,8.60
2023-02-02T02:59:02.792Z,8.70
2023-02-02T03:02:03.605Z,8.70
2023-02-02T03:04:54.298Z,8.70
2023-02-02T03:07:36.051Z,8.70
2023-02-02T03:10:06.347Z,8.80
2023-02-02T03:12:33.605Z,8.80
2023-02-02T03:15:06.270Z,8.80
2023-02-02T03:17:33.269Z,8.80
2023-02-02T03:20:00.253Z,8.80
2023-02-02T03:22:27.393Z,8.90
2023-02-02T03:24:54.337Z,8.90
2023-02-02T03:27:21.313Z,8.90
2023-02-02T03:29:48.267Z,9.00
2023-02-02T03:32:15.267Z,9.00
2023-02-02T03:34:42.335Z,9.00
2023-02-02T03:37:09.316Z,9.00
2023-02-02T03:39:36.276Z,9.00
2023-02-02T03:42:03.342Z,9.10
2023-02-02T03:44:30.398Z,9.10
2023-02-02T03:46:57.500Z,9.00
2023-02-02T03:49:24.678Z,9.00
2023-02-02T03:51:51.808Z,9.00
2023-02-02T03:54:18.758Z,9.00
2023-02-02T03:56:45.961Z,9.00
2023-02-02T03:59:12.815Z,9.10
2023-02-02T04:01:39.771Z,9.10
2023-02-02T04:04:06.671Z,9.00
2023-02-02T04:06:33.619Z,9.10
2023-02-02T04:09:00.432Z,9.00
2023-02-02T04:14:23.058Z,9.10
2023-02-02T04:16:50.091Z,9.10
2023-02-02T04:19:17.205Z,9.10
2023-02-02T04:21:44.196Z,9.10
2023-02-02T04:24:12.911Z,9.10
2023-02-02T04:26:41.029Z,9.10
2023-02-02T04:29:08.488Z,9.10
2023-02-02T04:31:35.735Z,9.20
2023-02-02T04:34:03.104Z,9.20
2023-02-02T04:36:30.223Z,9.20
2023-02-02T04:38:57.415Z,9.30
2023-02-02T04:41:24.820Z,9.30
2023-02-02T04:43:51.979Z,9.30
2023-02-02T04:46:19.224Z,9.30
2023-02-02T04:48:49.403Z,9.30
2023-02-02T04:51:18.753Z,9.30
2023-02-02T04:53:45.950Z,9.30
2023-02-02T04:56:18.827Z,9.30
2023-02-02T04:58:46.286Z,9.30
2023-02-02T05:01:19.728Z,9.40
2023-02-02T05:03:48.296Z,9.40
2023-02-02T05:06:16.663Z,9.40
2023-02-02T05:08:44.335Z,9.40
2023-02-02T05:11:18.113Z,9.40
2023-02-02T05:13:54.191Z,9.50
2023-02-02T05:16:22.624Z,9.40
2023-02-02T05:18:56.918Z,9.40
2023-02-02T05:21:24.330Z,9.40
2023-02-02T05:23:51.434Z,9.40
2023-02-02T05:26:23.133Z,9.40
2023-02-02T05:28:50.172Z,9.40
2023-02-02T05:31:17.489Z,9.40
2023-02-02T05:33:44.757Z,9.40
2023-02-02T05:36:12.609Z,9.40
2023-02-02T05:38:39.585Z,9.40
2023-02-02T05:41:06.613Z,9.40
2023-02-02T05:43:34.028Z,9.30
2023-02-02T05:46:01.776Z,9.30
2023-02-02T05:48:29.099Z,9.30
2023-02-02T05:51:30.250Z,9.20
2023-02-02T05:53:59.281Z,9.20
2023-02-02T05:56:27.634Z,9.20
2023-02-02T05:58:54.612Z,9.20
2023-02-02T06:01:22.059Z,9.20
2023-02-02T06:03:49.531Z,9.20
2023-02-02T06:06:16.551Z,9.20
2023-02-02T06:08:43.482Z,9.10
2023-02-02T06:11:16.673Z,9.10
2023-02-02T06:13:45.844Z,9.00
2023-02-02T06:16:13.516Z,9.10
2023-02-02T06:18:40.919Z,9.10
2023-02-02T06:21:08.186Z,9.10
2023-02-02T06:23:35.344Z,9.10
2023-02-02T06:26:03.503Z,9.10
2023-02-02T06:28:33.508Z,9.10
2023-02-02T06:31:06.113Z,9.20
2023-02-02T06:33:33.415Z,9.10
2023-02-02T06:36:02.250Z,9.10
2023-02-02T06:38:29.482Z,9.10
2023-02-02T06:41:00.402Z,9.10
2023-02-02T06:43:28.110Z,9.20
2023-02-02T06:45:57.204Z,9.20
2023-02-02T06:48:24.426Z,9.20
2023-02-02T06:50:51.376Z,9.20
2023-02-02T06:53:22.872Z,9.20
2023-02-02T06:55:58.739Z,9.50
2023-02-02T06:58:25.996Z,9.20
2023-02-02T07:00:53.548Z,9.30
2023-02-02T07:03:22.191Z,9.20
2023-02-02T07:05:50.086Z,9.30
2023-02-02T07:08:17.590Z,9.30
2023-02-02T07:11:11.284Z,9.30
2023-02-02T07:13:31.737Z,9.30
2023-02-02T07:15:58.797Z,9.30
2023-02-02T07:18:26.113Z,9.30
2023-02-02T07:20:53.208Z,9.60
2023-02-02T07:23:20.176Z,9.30
2023-02-02T07:25:47.275Z,9.40
2023-02-02T07:28:14.310Z,9.40
2023-02-02T07:30:41.274Z,9.40
2023-02-02T07:33:08.178Z,9.40
2023-02-02T07:35:35.482Z,9.50
2023-02-02T07:38:02.536Z,9.50
2023-02-02T07:40:29.484Z,9.50
2023-02-02T07:43:00.491Z,9.60
2023-02-02T07:45:28.226Z,9.60
2023-02-02T07:48:00.435Z,9.60
2023-02-02T07:50:29.208Z,9.50
2023-02-02T07:52:59.004Z,9.50
2023-02-02T07:55:25.958Z,9.50
2023-02-02T07:57:55.270Z,9.50
2023-02-02T08:00:24.278Z,9.50
2023-02-02T08:02:51.703Z,9.50
2023-02-02T08:05:20.150Z,9.50
2023-02-02T08:07:48.261Z,9.50
2023-02-02T08:10:15.309Z,9.70
2023-02-02T08:12:42.217Z,9.80
2023-02-02T08:15:12.655Z,10.00
2023-02-02T08:17:39.641Z,10.30
2023-02-02T08:20:07.382Z,10.60
2023-02-02T08:22:34.341Z,10.90
2023-02-02T08:25:01.162Z,11.20
2023-02-02T08:27:28.081Z,11.40
2023-02-02T08:29:54.921Z,11.80
2023-02-02T08:32:21.982Z,12.10
2023-02-02T08:34:51.728Z,12.50
2023-02-02T08:37:19.325Z,12.80
2023-02-02T08:39:46.292Z,13.10
2023-02-02T08:42:13.619Z,13.30
2023-02-02T08:45:00.277Z,13.60
2023-02-02T08:47:30.213Z,13.80
2023-02-02T08:49:57.325Z,14.00
2023-02-02T08:52:25.849Z,14.10
2023-02-02T08:54:52.884Z,14.10
2023-02-02T08:57:19.823Z,14.10
2023-02-02T08:59:46.890Z,14.00
2023-02-02T09:02:14.210Z,14.10
2023-02-02T09:04:42.574Z,14.10
2023-02-02T09:07:09.497Z,14.10
2023-02-02T09:09:36.379Z,14.10
2023-02-02T09:12:05.060Z,14.10
2023-02-02T09:14:32.825Z,14.10
2023-02-02T09:16:59.926Z,14.20
2023-02-02T09:19:27.414Z,14.30
2023-02-02T09:21:54.276Z,14.50
2023-02-02T09:24:21.168Z,14.50
2023-02-02T09:26:48.195Z,14.40
2023-02-02T09:29:17.942Z,14.40
2023-02-02T09:31:45.748Z,14.40
2023-02-02T09:34:15.290Z,14.10
2023-02-02T09:36:43.430Z,14.00
2023-02-02T09:39:12.819Z,14.00
2023-02-02T09:41:40.577Z,14.00
2023-02-02T09:45:01.657Z,14.10
2023-02-02T09:47:47.808Z,14.00
2023-02-02T09:50:55.828Z,14.00
2023-02-02T09:53:53.050Z,14.00
2023-02-02T09:56:29.015Z,14.00
2023-02-02T09:59:10.155Z,14.00
2023-02-02T10:01:46.603Z,14.00
2023-02-02T10:04:15.267Z,14.00
2023-02-02T10:06:56.602Z,14.00
2023-02-02T10:09:48.213Z,14.00
2023-02-02T10:12:31.567Z,14.00
2023-02-02T10:15:32.469Z,14.00
2023-02-02T10:18:18.509Z,14.10
2023-02-02T10:21:03.150Z,14.00
2023-02-02T10:23:42.778Z,13.90
2023-02-02T10:26:53.881Z,13.80
2023-02-02T10:29:49.085Z,13.70
2023-02-02T10:32:22.537Z,13.70
2023-02-02T10:35:14.653Z,13.80
2023-02-02T10:38:03.619Z,13.90
2023-02-02T10:41:10.398Z,14.10
2023-02-02T10:44:12.751Z,14.40
2023-02-02T10:46:51.840Z,14.80
2023-02-02T10:49:34.761Z,15.10
2023-02-02T10:52:13.450Z,15.50
2023-02-02T10:55:16.023Z,15.80
2023-02-02T10:58:13.257Z,16.20
2023-02-02T11:00:50.885Z,16.60
2023-02-02T11:03:21.551Z,16.80
2023-02-02T11:06:07.220Z,17.00
2023-02-02T11:08:39.124Z,17.20
2023-02-02T11:11:32.935Z,17.20
2023-02-02T11:14:11.519Z,17.10
2023-02-02T11:16:45.032Z,17.00
2023-02-02T11:19:17.978Z,16.70
2023-02-02T11:21:50.855Z,16.50
2023-02-02T11:24:23.579Z,16.30
2023-02-02T11:27:02.944Z,16.10
2023-02-02T11:29:39.003Z,15.90
2023-02-02T11:32:25.384Z,15.80
2023-02-02T11:35:23.374Z,15.60
2023-02-02T11:38:14.878Z,15.50
2023-02-02T11:41:06.884Z,15.40
2023-02-02T11:43:41.620Z,15.20
2023-02-02T11:46:24.488Z,15.10
2023-02-02T11:49:02.197Z,14.90
2023-02-02T11:51:31.303Z,14.80
2023-02-02T11:54:08.565Z,14.50
2023-02-02T11:56:37.974Z,14.30
2023-02-02T11:59:06.128Z,14.20
2023-02-02T12:01:39.798Z,14.00
2023-02-02T12:04:15.810Z,13.90
2023-02-02T12:06:43.798Z,13.70
2023-02-02T12:09:15.576Z,13.70
2023-02-02T12:12:26.351Z,13.50
2023-02-02T12:15:12.463Z,13.50
2023-02-02T12:17:45.396Z,13.50
2023-02-02T12:20:21.099Z,13.50
2023-02-02T12:23:52.128Z,13.50
2023-02-02T12:26:26.772Z,13.50
2023-02-02T12:29:39.528Z,13.50
2023-02-02T12:32:30.024Z,13.50
2023-02-02T12:35:54.001Z,13.50
2023-02-02T12:38:41.623Z,13.50
2023-02-02T12:41:36.897Z,13.50
2023-02-02T12:44:37.021Z,13.50
2023-02-02T12:47:16.451Z,13.40
2023-02-02T12:50:14.417Z,13.30
2023-02-02T12:52:57.655Z,13.20
2023-02-02T12:56:01.072Z,13.20
2023-02-02T12:59:01.633Z,13.20
2023-02-02T13:02:13.560Z,13.50
2023-02-02T13:05:11.623Z,14.10
2023-02-02T13:07:44.415Z,15.00
2023-02-02T13:10:37.965Z,15.90
2023-02-02T13:13:17.122Z,16.70
2023-02-02T13:15:50.117Z,17.50
2023-02-02T13:18:26.623Z,18.30
2023-02-02T13:20:56.817Z,19.10
2023-02-02T13:23:34.375Z,19.80
2023-02-02T13:26:17.833Z,20.50
2023-02-02T13:28:58.194Z,21.00
2023-02-02T13:31:38.053Z,21.40
2023-02-02T13:34:22.230Z,21.80
2023-02-02T13:37:07.223Z,22.10
2023-02-02T13:39:42.120Z,22.10
2023-02-02T13:42:45.146Z,21.90
2023-02-02T13:45:35.572Z,21.90
2023-02-02T13:48:25.300Z,21.80
2023-02-02T13:51:11.412Z,21.60
2023-02-02T13:53:58.139Z,21.40
2023-02-02T13:57:19.746Z,21.10
2023-02-02T14:00:15.767Z,20.40
2023-02-02T14:02:48.682Z,19.90
2023-02-02T14:05:40.732Z,19.30
2023-02-02T14:08:19.057Z,19.00
2023-02-02T14:11:00.266Z,18.20
2023-02-02T14:14:01.551Z,17.70
2023-02-02T14:16:31.324Z,17.20
2023-02-02T14:19:09.065Z,16.70
2023-02-02T14:21:36.205Z,16.40
2023-02-02T14:24:05.010Z,15.70
2023-02-02T14:26:48.424Z,15.30
2023-02-02T14:29:33.720Z,14.90
2023-02-02T14:32:24.234Z,14.50
2023-02-02T14:34:58.960Z,14.10
2023-02-02T14:37:28.688Z,13.80
2023-02-02T14:39:55.487Z,13.50
2023-02-02T14:43:31.950Z,13.30
2023-02-02T14:46:07.563Z,13.00
2023-02-02T14:48:35.258Z,12.70
2023-02-02T14:51:02.600Z,12.50
2023-02-02T14:53:36.182Z,12.30
2023-02-02T14:56:14.719Z,12.10
2023-02-02T14:58:47.282Z,11.90
2023-02-02T15:01:29.871Z,11.70
2023-02-02T15:04:21.897Z,11.50
2023-02-02T15:06:52.696Z,11.40
2023-02-02T15:09:33.807Z,11.30
2023-02-02T15:12:06.695Z,11.10
2023-02-02T15:14:38.629Z,11.10
2023-02-02T15:17:39.044Z,10.90
2023-02-02T15:20:27.703Z,10.80
2023-02-02T15:23:08.267Z,10.70
2023-02-02T15:25:46.985Z,10.60
2023-02-02T15:28:21.739Z,10.50
2023-02-02T15:31:13.251Z,10.50
2023-02-02T15:33:44.677Z,10.40
2023-02-02T15:36:23.667Z,10.30
2023-02-02T15:38:55.977Z,10.10
2023-02-02T15:41:28.773Z,10.10
2023-02-02T15:43:55.575Z,10.00
2023-02-02T15:46:28.521Z,9.90
2023-02-02T15:49:33.676Z,9.80
2023-02-02T15:52:13.156Z,9.60
2023-02-02T15:54:54.641Z,9.50
2023-02-02T15:57:32.743Z,9.40
2023-02-02T16:00:22.038Z,9.30
2023-02-02T16:03:00.827Z,9.20
2023-02-02T16:05:36.910Z,9.10
2023-02-02T16:08:34.598Z,9.00
2023-02-02T16:11:10.922Z,8.90
2023-02-02T16:13:39.071Z,8.80
2023-02-02T16:16:36.405Z,8.70
2023-02-02T16:19:09.303Z,8.60
2023-02-02T16:21:42.839Z,8.50
2023-02-02T16:24:20.920Z,8.40
2023-02-02T16:26:49.095Z,8.20
2023-02-02T16:29:18.381Z,8.30
2023-02-02T16:31:48.675Z,8.10
2023-02-02T16:34:39.268Z,8.00
2023-02-02T16:37:15.120Z,7.90
2023-02-02T16:39:42.692Z,7.80
2023-02-02T16:42:12.144Z,7.70
2023-02-02T16:44:43.902Z,7.60
2023-02-02T16:47:26.629Z,7.60
2023-02-02T16:50:09.093Z,7.50
2023-02-02T16:53:05.487Z,7.40
2023-02-02T16:55:49.260Z,7.30
2023-02-02T16:58:22.015Z,7.20
2023-02-02T17:01:16.374Z,7.20
2023-02-02T17:03:54.757Z,7.10
2023-02-02T17:06:42.128Z,7.10
2023-02-02T17:09:35.846Z,7.00
2023-02-02T17:12:35.171Z,7.00
2023-02-02T17:15:25.756Z,6.90
2023-02-02T17:17:53.463Z,6.90
2023-02-02T17:20:21.765Z,6.90
2023-02-02T17:22:59.632Z,6.80
2023-02-02T17:25:33.413Z,6.80
2023-02-02T17:28:01.632Z,6.70
2023-02-02T17:30:30.304Z,6.70
2023-02-02T17:32:57.721Z,6.70
2023-02-02T17:35:28.670Z,6.70
2023-02-02T17:37:59.940Z,6.70
2023-02-02T17:40:27.416Z,6.60
2023-02-02T17:42:54.886Z,6.60
2023-02-02T17:45:33.807Z,6.60
2023-02-02T17:48:01.668Z,6.50
2023-02-02T17:50:29.976Z,6.50
2023-02-02T17:52:57.287Z,6.50
2023-02-02T17:55:36.337Z,6.50
2023-02-02T17:58:03.700Z,6.40
2023-02-02T18:00:31.631Z,6.40
2023-02-02T18:03:24.029Z,6.30
2023-02-02T18:05:51.262Z,6.30
2023-02-02T18:08:19.001Z,6.30
2023-02-02T18:10:46.148Z,6.30
2023-02-02T18:13:19.487Z,6.20
2023-02-02T18:15:47.718Z,6.20
2023-02-02T18:18:15.302Z,6.20
2023-02-02T18:20:48.375Z,6.20
2023-02-02T18:23:17.241Z,6.30
2023-02-02T18:25:44.688Z,6.10
2023-02-02T18:28:15.178Z,6.10
2023-02-02T18:30:43.654Z,6.10
2023-02-02T18:33:12.513Z,6.10
2023-02-02T18:35:44.493Z,6.10
2023-02-02T18:38:11.444Z,6.00
2023-02-02T18:40:38.502Z,6.10
2023-02-02T18:43:05.404Z,6.10
2023-02-02T18:45:32.581Z,6.00
2023-02-02T18:47:59.581Z,6.00
2023-02-02T18:50:27.435Z,6.00
2023-02-02T18:52:54.471Z,6.00
2023-02-02T18:55:21.658Z,6.00
2023-02-02T18:57:48.703Z,6.00
2023-02-02T19:00:15.828Z,6.00
2023-02-02T19:02:42.745Z,5.90
2023-02-02T19:05:28.682Z,5.90
2023-02-02T19:07:55.655Z,5.90
2023-02-02T19:10:25.026Z,5.90
2023-02-02T19:13:05.245Z,5.80
2023-02-02T19:15:41.562Z,5.80
2023-02-02T19:18:24.611Z,5.80
2023-02-02T19:20:52.437Z,5.80
2023-02-02T19:23:23.466Z,5.70
2023-02-02T19:25:56.249Z,5.70
2023-02-02T19:28:25.466Z,5.70
2023-02-02T19:30:54.916Z,5.60
2023-02-02T19:33:26.661Z,5.60
2023-02-02T19:35:55.201Z,5.60
2023-02-02T19:38:25.294Z,5.50
2023-02-02T19:40:52.202Z,5.50
2023-02-02T19:43:27.621Z,5.50
2023-02-02T19:45:57.796Z,5.50
2023-02-02T19:48:29.728Z,5.50
2023-02-02T19:50:58.875Z,5.50
2023-02-02T19:53:36.040Z,5.50
2023-02-02T19:56:20.152Z,5.50
2023-02-02T19:58:48.090Z,5.50
2023-02-02T20:01:28.910Z,5.50
2023-02-02T20:03:58.455Z,5.40
2023-02-02T20:06:27.209Z,5.50
2023-02-02T20:08:54.139Z,5.50
2023-02-02T20:11:36.970Z,5.50
2023-02-02T20:14:30.083Z,5.50
2023-02-02T20:17:37.488Z,5.60
2023-02-02T20:20:26.217Z,5.60
2023-02-02T20:22:54.901Z,5.60
2023-02-02T20:25:21.761Z,5.60
2023-02-02T20:27:49.470Z,5.70
2023-02-02T20:30:30.864Z,5.70
2023-02-02T20:33:00.460Z,5.70
2023-02-02T20:35:39.408Z,5.70
2023-02-02T20:38:25.351Z,5.70
2023-02-02T20:40:53.123Z,5.80
2023-02-02T20:43:20.468Z,5.80
2023-02-02T20:45:47.816Z,5.80
2023-02-02T20:48:15.240Z,5.80
2023-02-02T20:50:42.778Z,5.80
2023-02-02T20:53:10.573Z,5.80
2023-02-02T20:55:37.667Z,5.80
2023-02-02T20:58:05.438Z,5.80
2023-02-02T21:00:32.918Z,5.80
2023-02-02T21:02:59.853Z,5.80
2023-02-02T21:05:26.761Z,5.80
2023-02-02T21:07:54.928Z,5.90
2023-02-02T21:10:26.425Z,5.80
2023-02-02T21:12:53.694Z,5.80
2023-02-02T21:15:20.497Z,5.70
2023-02-02T21:17:47.458Z,5.70
2023-02-02T21:20:15.149Z,5.70
2023-02-02T21:22:42.238Z,5.70
2023-02-02T21:25:10.502Z,5.70
2023-02-02T21:27:41.129Z,5.70
2023-02-02T21:30:11.752Z,5.70
2023-02-02T21:32:38.816Z,5.70
2023-02-02T21:35:06.842Z,5.70
2023-02-02T21:37:37.294Z,5.60
2023-02-02T21:40:14.630Z,5.60
2023-02-02T21:42:49.508Z,5.60
2023-02-02T21:45:34.116Z,5.60
2023-02-02T21:48:21.579Z,5.50
2023-02-02T21:50:48.800Z,5.50
2023-02-02T21:53:22.425Z,5.50
2023-02-02T21:56:00.320Z,5.50
2023-02-02T21:58:35.095Z,5.40
2023-02-02T22:01:34.674Z,5.50
2023-02-02T22:04:01.912Z,5.40
2023-02-02T22:06:43.065Z,5.40
2023-02-02T22:09:19.887Z,5.40
2023-02-02T22:11:59.121Z,5.40
2023-02-02T22:14:42.410Z,5.40
2023-02-02T22:17:41.045Z,5.40
2023-02-02T22:20:30.489Z,5.40
2023-02-02T22:22:57.357Z,5.40
2023-02-02T22:25:36.983Z,5.40
2023-02-02T22:28:28.393Z,5.40
2023-02-02T22:30:57.058Z,5.40
2023-02-02T22:33:26.156Z,5.40
2023-02-02T22:35:53.459Z,5.40
2023-02-02T22:38:24.707Z,5.40
2023-02-02T22:40:53.152Z,5.40
2023-02-02T22:43:21.511Z,5.40
2023-02-02T22:45:49.036Z,5.50
2023-02-02T22:48:16.423Z,5.50
2023-02-02T22:50:43.992Z,5.50
2023-02-02T22:53:12.232Z,5.50
2023-02-02T22:55:39.271Z,5.50
2023-02-02T22:58:06.168Z,5.60
2023-02-02T23:00:33.461Z,5.60
2023-02-02T23:03:00.653Z,5.60
2023-02-02T23:05:28.251Z,5.70
2023-02-02T23:07:56.203Z,5.70
2023-02-02T23:10:26.857Z,5.70
2023-02-02T23:12:58.160Z,5.80
2023-02-02T23:15:26.367Z,5.90
2023-02-02T23:17:53.835Z,5.90
2023-02-02T23:20:21.240Z,5.90
2023-02-02T23:22:48.311Z,5.90
2023-02-02T23:25:15.803Z,6.00
2023-02-02T23:27:43.183Z,6.00
2023-02-02T23:30:12.719Z,6.00
2023-02-02T23:32:40.395Z,6.10
2023-02-02T23:35:10.452Z,6.10
2023-02-02T23:37:37.841Z,6.10
2023-02-02T23:40:06.190Z,6.10
2023-02-02T23:42:33.835Z,6.20
2023-02-02T23:45:00.704Z,6.20
2023-02-02T23:47:27.647Z,6.20
2023-02-02T23:49:54.755Z,6.20
2023-02-02T23:52:21.877Z,6.20
2023-02-02T23:54:48.909Z,6.20
2023-02-02T23:57:16.148Z,6.30
2023-02-02T23:59:43.239Z,6.30
